createdAt,value
2023-01-11T00:01:09.954Z,3.64
2023-01-11T00:03:37.277Z,3.63
2023-01-11T00:06:04.994Z,3.61
2023-01-11T00:08:32.384Z,3.61
2023-01-11T00:11:02.334Z,3.60
2023-01-11T00:13:31.581Z,3.61
2023-01-11T00:16:09.521Z,3.57
2023-01-11T00:18:38.223Z,3.59
2023-01-11T00:21:06.769Z,3.61
2023-01-11T00:23:35.647Z,3.63
2023-01-11T00:26:06.250Z,3.63
2023-01-11T00:28:34.269Z,3.62
2023-01-11T00:31:01.974Z,3.63
2023-01-11T00:33:29.330Z,3.62
2023-01-11T00:35:56.951Z,3.62
2023-01-11T00:38:43.389Z,3.61
2023-01-11T00:41:35.006Z,3.67
2023-01-11T00:44:22.808Z,3.67
2023-01-11T00:47:09.531Z,3.64
2023-01-11T00:49:37.115Z,3.66
2023-01-11T00:52:09.033Z,3.66
2023-01-11T00:54:38.883Z,3.67
2023-01-11T00:57:07.553Z,3.65
2023-01-11T00:59:36.136Z,3.67
2023-01-11T01:02:04.037Z,3.65
2023-01-11T01:04:31.945Z,3.64
2023-01-11T01:06:59.313Z,3.69
2023-01-11T01:09:26.939Z,3.67
2023-01-11T01:11:54.551Z,3.66
2023-01-11T01:14:33.379Z,3.62
2023-01-11T01:17:07.205Z,3.64
2023-01-11T01:19:37.904Z,3.64
2023-01-11T01:22:05.335Z,3.62
2023-01-11T01:24:33.973Z,3.68
2023-01-11T01:27:01.352Z,3.66
2023-01-11T01:29:28.763Z,3.63
2023-01-11T01:31:56.089Z,3.57
2023-01-11T01:34:23.481Z,3.52
2023-01-11T01:36:50.817Z,3.53
2023-01-11T01:39:18.411Z,3.46
2023-01-11T01:41:45.774Z,3.40
2023-01-11T01:45:00.037Z,3.34
2023-01-11T01:47:50.811Z,3.33
2023-01-11T01:50:25.997Z,3.33
2023-01-11T01:53:02.483Z,3.27
2023-01-11T01:55:36.991Z,3.28
2023-01-11T01:58:12.502Z,3.24
2023-01-11T02:00:45.844Z,3.24
2023-01-11T02:03:20.747Z,3.27
2023-01-11T02:05:50.266Z,3.17
2023-01-11T02:08:32.731Z,3.07
2023-01-11T02:11:01.113Z,2.94
2023-01-11T02:13:30.416Z,2.90
2023-01-11T02:16:09.989Z,2.84
2023-01-11T02:18:38.450Z,2.79
2023-01-11T02:22:07.518Z,2.74
2023-01-11T02:25:00.746Z,2.71
2023-01-11T02:28:07.787Z,2.66
2023-01-11T02:30:54.060Z,2.61
2023-01-11T02:33:32.340Z,2.64
2023-01-11T02:36:39.520Z,2.61
2023-01-11T02:39:34.406Z,2.57
2023-01-11T02:42:32.866Z,2.62
2023-01-11T02:45:42.485Z,2.64
2023-01-11T02:48:24.557Z,2.66
2023-01-11T02:51:13.523Z,2.68
2023-01-11T02:53:55.871Z,2.71
2023-01-11T02:56:28.189Z,2.75
2023-01-11T02:58:58.056Z,2.79
2023-01-11T03:01:25.714Z,2.84
2023-01-11T03:03:54.128Z,2.87
2023-01-11T03:06:28.685Z,2.89
2023-01-11T03:09:12.396Z,2.93
2023-01-11T03:12:10.411Z,2.97
2023-01-11T03:14:37.668Z,3.04
2023-01-11T03:17:13.907Z,3.06
2023-01-11T03:19:54.103Z,3.11
2023-01-11T03:23:08.982Z,3.16
2023-01-11T03:26:18.581Z,3.19
2023-01-11T03:29:20.630Z,3.21
2023-01-11T03:32:00.929Z,3.21
2023-01-11T03:34:49.163Z,3.22
2023-01-11T03:37:28.835Z,3.23
2023-01-11T03:40:05.974Z,3.23
2023-01-11T03:42:56.680Z,3.25
2023-01-11T03:45:27.672Z,3.21
2023-01-11T03:47:57.061Z,3.15
2023-01-11T03:50:27.164Z,3.13
2023-01-11T03:52:57.568Z,3.06
2023-01-11T03:55:30.517Z,2.91
2023-01-11T03:57:59.110Z,2.80
2023-01-11T04:00:29.989Z,2.71
2023-01-11T04:03:00.631Z,2.72
2023-01-11T04:05:29.051Z,2.71
2023-01-11T04:07:56.541Z,2.68
2023-01-11T04:10:23.971Z,2.61
2023-01-11T04:12:51.563Z,2.57
2023-01-11T04:15:18.880Z,2.55
2023-01-11T04:17:46.276Z,2.46
2023-01-11T04:20:13.825Z,2.37
2023-01-11T04:22:41.168Z,2.28
2023-01-11T04:25:09.809Z,2.23
2023-01-11T04:27:37.396Z,2.17
2023-01-11T04:30:05.416Z,2.15
2023-01-11T04:32:32.729Z,2.10
2023-01-11T04:35:00.237Z,2.08
2023-01-11T04:37:27.603Z,2.05
2023-01-11T04:39:55.089Z,2.02
2023-01-11T04:42:24.860Z,1.99
2023-01-11T04:44:53.071Z,2.01
2023-01-11T04:47:23.820Z,2.00
2023-01-11T04:49:51.673Z,2.00
2023-01-11T04:52:20.759Z,1.97
2023-01-11T04:54:48.981Z,1.99
2023-01-11T04:57:17.696Z,1.93
2023-01-11T04:59:48.240Z,1.84
2023-01-11T05:02:16.980Z,1.85
2023-01-11T05:04:44.401Z,1.69
2023-01-11T05:07:12.233Z,1.59
2023-01-11T05:09:40.841Z,1.54
2023-01-11T05:12:08.254Z,1.51
2023-01-11T05:14:35.572Z,1.47
2023-01-11T05:17:03.154Z,1.48
2023-01-11T05:19:30.524Z,1.47
2023-01-11T05:21:57.916Z,1.47
2023-01-11T05:24:25.450Z,1.45
2023-01-11T05:26:53.322Z,1.43
2023-01-11T05:29:21.257Z,1.40
2023-01-11T05:31:49.070Z,1.42
2023-01-11T05:34:17.638Z,1.44
2023-01-11T05:36:45.719Z,1.43
2023-01-11T05:39:14.766Z,1.41
2023-01-11T05:41:42.192Z,1.42
2023-01-11T05:44:32.057Z,1.39
2023-01-11T05:46:59.817Z,1.42
2023-01-11T05:49:27.345Z,1.40
2023-01-11T05:51:54.643Z,1.39
2023-01-11T05:54:22.152Z,1.39
2023-01-11T05:56:49.615Z,1.39
2023-01-11T05:59:16.999Z,1.44
2023-01-11T06:01:44.545Z,1.43
2023-01-11T06:04:11.863Z,1.42
2023-01-11T06:06:39.322Z,1.41
2023-01-11T06:09:06.671Z,1.39
2023-01-11T06:11:34.075Z,1.37
2023-01-11T06:14:01.543Z,1.36
2023-01-11T06:16:28.894Z,1.40
2023-01-11T06:18:56.387Z,1.40
2023-01-11T06:21:25.121Z,1.43
2023-01-11T06:23:52.719Z,1.43
2023-01-11T06:26:22.452Z,1.46
2023-01-11T06:28:51.051Z,1.48
2023-01-11T06:31:19.206Z,1.48
2023-01-11T06:33:47.578Z,1.55
2023-01-11T06:36:16.124Z,1.58
2023-01-11T06:38:44.611Z,1.58
2023-01-11T06:41:13.535Z,1.60
2023-01-11T06:43:42.101Z,1.63
2023-01-11T06:46:12.743Z,1.64
2023-01-11T06:48:40.127Z,1.65
2023-01-11T06:51:07.810Z,1.66
2023-01-11T06:53:35.297Z,1.68
2023-01-11T06:56:02.624Z,1.66
2023-01-11T06:58:29.998Z,1.71
2023-01-11T07:00:58.325Z,1.68
2023-01-11T07:03:26.558Z,1.72
2023-01-11T07:05:57.022Z,1.73
2023-01-11T07:08:26.053Z,1.73
2023-01-11T07:10:54.583Z,1.75
2023-01-11T07:13:21.979Z,1.78
2023-01-11T07:15:51.775Z,1.80
2023-01-11T07:18:20.149Z,1.80
2023-01-11T07:20:47.627Z,1.82
2023-01-11T07:23:15.168Z,1.80
2023-01-11T07:25:42.561Z,1.86
2023-01-11T07:28:10.140Z,1.87
2023-01-11T07:30:56.757Z,1.87
2023-01-11T07:33:26.409Z,1.81
2023-01-11T07:35:54.241Z,1.82
2023-01-11T07:38:21.884Z,1.82
2023-01-11T07:40:49.631Z,1.85
2023-01-11T07:43:19.490Z,1.87
2023-01-11T07:45:50.169Z,1.86
2023-01-11T07:48:27.064Z,1.89
2023-01-11T07:50:55.160Z,1.94
2023-01-11T07:53:25.572Z,2.02
2023-01-11T07:55:56.380Z,2.05
2023-01-11T07:58:24.168Z,2.06
2023-01-11T08:00:51.894Z,2.15
2023-01-11T08:03:19.527Z,2.20
2023-01-11T08:05:51.820Z,2.22
2023-01-11T08:08:19.345Z,2.23
2023-01-11T08:10:46.782Z,2.25
2023-01-11T08:13:33.737Z,2.28
2023-01-11T08:16:01.072Z,2.31
2023-01-11T08:18:28.448Z,2.29
2023-01-11T08:20:55.808Z,2.32
2023-01-11T08:23:23.219Z,2.33
2023-01-11T08:25:55.591Z,2.36
2023-01-11T08:28:22.935Z,2.43
2023-01-11T08:30:50.498Z,2.47
2023-01-11T08:33:17.917Z,2.43
2023-01-11T08:35:45.275Z,2.41
2023-01-11T08:38:12.711Z,2.46
2023-01-11T08:40:40.575Z,2.47
2023-01-11T08:43:07.934Z,2.44
2023-01-11T08:45:35.260Z,2.50
2023-01-11T08:48:02.658Z,2.57
2023-01-11T08:50:29.992Z,2.49
2023-01-11T08:52:57.337Z,2.54
2023-01-11T08:55:24.695Z,2.55
2023-01-11T08:57:52.067Z,2.52
2023-01-11T09:00:20.136Z,2.58
2023-01-11T09:02:47.806Z,2.52
2023-01-11T09:05:17.995Z,2.49
2023-01-11T09:07:46.206Z,2.46
2023-01-11T09:10:13.770Z,2.48
2023-01-11T09:12:41.107Z,2.50
2023-01-11T09:15:09.742Z,2.50
2023-01-11T09:17:37.255Z,2.50
2023-01-11T09:20:05.396Z,2.53
2023-01-11T09:22:33.821Z,2.53
2023-01-11T09:25:01.280Z,2.62
2023-01-11T09:27:28.659Z,2.61
2023-01-11T09:29:56.051Z,2.64
2023-01-11T09:32:23.563Z,2.60
2023-01-11T09:34:53.538Z,2.63
2023-01-11T09:37:22.676Z,2.62
2023-01-11T09:39:51.556Z,2.67
2023-01-11T09:42:34.893Z,2.66
2023-01-11T09:45:21.801Z,2.66
2023-01-11T09:48:03.754Z,2.64
2023-01-11T09:50:41.773Z,2.64
2023-01-11T09:53:38.348Z,2.65
2023-01-11T09:56:13.960Z,2.68
2023-01-11T09:59:16.981Z,2.67
2023-01-11T10:02:05.669Z,2.68
2023-01-11T10:05:04.169Z,2.65
2023-01-11T10:07:49.843Z,2.63
2023-01-11T10:18:23.252Z,2.75
2023-01-11T10:18:31.913Z,2.72
2023-01-11T10:20:24.641Z,2.72
2023-01-11T10:23:05.081Z,2.73
2023-01-11T10:25:42.811Z,2.72
2023-01-11T10:28:35.881Z,2.76
2023-01-11T10:31:44.903Z,2.77
2023-01-11T10:34:38.778Z,2.77
2023-01-11T10:37:36.197Z,2.81
2023-01-11T10:41:00.572Z,2.82
2023-01-11T10:43:32.832Z,2.80
2023-01-11T10:46:14.179Z,2.83
2023-01-11T10:48:45.145Z,2.87
2023-01-11T10:51:32.157Z,2.82
2023-01-11T10:54:16.225Z,2.80
2023-01-11T10:57:24.436Z,2.80
2023-01-11T11:00:10.441Z,2.80
2023-01-11T11:02:49.764Z,2.81
2023-01-11T11:05:44.948Z,2.86
2023-01-11T11:08:28.193Z,2.83
2023-01-11T11:11:17.765Z,2.78
2023-01-11T11:14:24.252Z,2.83
2023-01-11T11:17:26.444Z,2.87
2023-01-11T11:19:54.029Z,2.87
2023-01-11T11:22:21.394Z,2.91
2023-01-11T11:25:29.637Z,2.91
2023-01-11T11:28:03.169Z,2.97
2023-01-11T11:30:46.838Z,3.01
2023-01-11T11:33:23.994Z,2.96
2023-01-11T11:36:04.821Z,2.98
2023-01-11T11:38:41.942Z,2.96
2023-01-11T11:41:13.862Z,2.93
2023-01-11T11:43:48.413Z,2.97
2023-01-11T11:46:19.334Z,3.01
2023-01-11T11:49:18.665Z,3.01
2023-01-11T11:51:47.992Z,2.98
2023-01-11T11:54:29.401Z,3.01
2023-01-11T11:57:11.883Z,3.02
2023-01-11T11:59:45.187Z,2.99
2023-01-11T12:02:28.367Z,2.97
2023-01-11T12:04:59.811Z,2.93
2023-01-11T12:07:54.420Z,2.92
2023-01-11T12:10:28.711Z,2.96
2023-01-11T12:13:04.158Z,2.99
2023-01-11T12:15:34.527Z,3.04
2023-01-11T12:18:26.023Z,3.04
2023-01-11T12:20:54.762Z,3.04
2023-01-11T12:23:25.634Z,3.03
2023-01-11T12:26:14.907Z,3.05
2023-01-11T12:28:53.929Z,3.02
2023-01-11T12:31:46.207Z,3.06
2023-01-11T12:34:26.347Z,3.05
2023-01-11T12:37:16.390Z,3.09
2023-01-11T12:40:13.637Z,3.13
2023-01-11T12:42:55.873Z,3.17
2023-01-11T12:45:44.124Z,3.18
2023-01-11T12:48:17.295Z,3.19
2023-01-11T12:51:21.332Z,3.18
2023-01-11T12:54:05.309Z,3.21
2023-01-11T12:56:54.872Z,3.25
2023-01-11T12:59:53.222Z,3.30
2023-01-11T13:02:41.031Z,3.28
2023-01-11T13:06:00.546Z,3.22
2023-01-11T13:08:41.654Z,3.26
2023-01-11T13:11:36.796Z,3.26
2023-01-11T13:14:22.539Z,3.30
2023-01-11T13:17:33.345Z,3.29
2023-01-11T13:21:03.992Z,3.25
2023-01-11T13:23:42.112Z,3.31
2023-01-11T13:26:24.907Z,3.30
2023-01-11T13:29:00.985Z,3.29
2023-01-11T13:31:32.027Z,3.25
2023-01-11T13:34:19.005Z,3.25
2023-01-11T13:36:59.286Z,3.23
2023-01-11T13:39:42.050Z,3.22
2023-01-11T13:42:21.524Z,3.25
2023-01-11T13:45:46.540Z,3.27
2023-01-11T13:48:22.971Z,3.29
2023-01-11T13:51:18.390Z,3.31
2023-01-11T13:54:08.320Z,3.31
2023-01-11T13:56:42.114Z,3.33
2023-01-11T13:59:31.451Z,3.31
2023-01-11T14:02:33.010Z,3.32
2023-01-11T14:05:15.675Z,3.32
2023-01-11T14:08:44.801Z,3.34
2023-01-11T14:11:24.131Z,3.36
2023-01-11T14:14:39.874Z,3.37
2023-01-11T14:17:26.394Z,3.37
2023-01-11T14:20:20.407Z,3.42
2023-01-11T14:23:43.092Z,3.43
2023-01-11T14:26:25.059Z,3.45
2023-01-11T14:29:25.658Z,3.42
2023-01-11T14:32:29.682Z,3.43
2023-01-11T14:35:52.293Z,3.42
2023-01-11T14:38:56.819Z,3.43
2023-01-11T14:41:29.940Z,3.42
2023-01-11T14:44:36.832Z,3.38
2023-01-11T14:47:33.001Z,3.35
2023-01-11T14:50:41.090Z,3.32
2023-01-11T14:53:12.476Z,3.28
2023-01-11T14:55:45.214Z,3.27
2023-01-11T14:58:29.867Z,3.23
2023-01-11T15:00:57.205Z,3.22
2023-01-11T15:03:42.025Z,3.21
2023-01-11T15:06:20.429Z,3.21
2023-01-11T15:08:54.874Z,3.20
2023-01-11T15:11:31.348Z,3.18
2023-01-11T15:14:23.126Z,3.19
2023-01-11T15:17:18.106Z,3.19
2023-01-11T15:19:49.000Z,3.19
2023-01-11T15:22:32.911Z,3.20
2023-01-11T15:25:29.769Z,3.21
2023-01-11T15:28:00.137Z,3.22
2023-01-11T15:30:30.345Z,3.25
2023-01-11T15:33:19.813Z,3.24
2023-01-11T15:35:56.115Z,3.21
2023-01-11T15:38:39.489Z,3.23
2023-01-11T15:41:34.095Z,3.25
2023-01-11T15:44:15.117Z,3.23
2023-01-11T15:46:54.543Z,3.27
2023-01-11T15:49:45.158Z,3.25
2023-01-11T15:52:50.735Z,3.24
2023-01-11T15:56:11.587Z,3.27
2023-01-11T15:58:59.098Z,3.30
2023-01-11T16:01:30.719Z,3.33
2023-01-11T16:04:43.538Z,3.35
2023-01-11T16:07:27.307Z,3.39
2023-01-11T16:10:13.350Z,3.43
2023-01-11T16:13:25.263Z,3.43
2023-01-11T16:16:06.952Z,3.45
2023-01-11T16:18:43.525Z,3.49
2023-01-11T16:21:26.914Z,3.48
2023-01-11T16:23:55.523Z,3.49
2023-01-11T16:26:23.110Z,3.49
2023-01-11T16:28:56.755Z,3.54
2023-01-11T16:31:26.708Z,3.53
2023-01-11T16:33:54.287Z,3.56
2023-01-11T16:36:24.258Z,3.59
2023-01-11T16:39:04.954Z,3.61
2023-01-11T16:41:45.063Z,3.62
2023-01-11T16:44:33.827Z,3.69
2023-01-11T16:47:04.278Z,3.68
2023-01-11T16:49:32.146Z,3.70
2023-01-11T16:52:00.450Z,3.74
2023-01-11T16:54:32.636Z,3.74
2023-01-11T16:57:02.010Z,3.76
2023-01-11T16:59:30.933Z,3.77
2023-01-11T17:02:03.813Z,3.73
2023-01-11T17:04:49.968Z,3.75
2023-01-11T17:07:26.632Z,3.77
2023-01-11T17:10:14.099Z,3.77
2023-01-11T17:12:46.238Z,3.79
2023-01-11T17:15:54.933Z,3.80
2023-01-11T17:18:22.687Z,3.82
2023-01-11T17:20:54.187Z,3.83
2023-01-11T17:23:21.800Z,3.87
2023-01-11T17:25:56.735Z,3.88
2023-01-11T17:28:26.047Z,3.88
2023-01-11T17:30:54.369Z,3.88
2023-01-11T17:33:33.344Z,3.91
2023-01-11T17:36:03.001Z,3.91
2023-01-11T17:38:31.542Z,3.93
2023-01-11T17:41:01.208Z,3.91
2023-01-11T17:43:48.900Z,3.92
2023-01-11T17:46:22.057Z,3.91
2023-01-11T17:49:00.557Z,3.90
2023-01-11T17:51:33.006Z,3.90
2023-01-11T17:54:00.598Z,3.89
2023-01-11T17:56:41.787Z,3.88
2023-01-11T17:59:11.947Z,3.88
2023-01-11T18:01:44.965Z,3.87
2023-01-11T18:04:19.534Z,3.88
2023-01-11T18:06:48.810Z,3.89
2023-01-11T18:09:30.612Z,3.89
2023-01-11T18:12:18.308Z,3.89
2023-01-11T18:14:59.684Z,3.90
2023-01-11T18:17:33.223Z,3.90
2023-01-11T18:20:10.729Z,3.91
2023-01-11T18:22:41.898Z,3.93
2023-01-11T18:25:20.165Z,3.95
2023-01-11T18:27:48.770Z,3.95
2023-01-11T18:30:42.307Z,3.93
2023-01-11T18:33:20.696Z,3.94
2023-01-11T18:35:51.994Z,3.97
2023-01-11T18:38:32.827Z,3.99
2023-01-11T18:41:26.601Z,4.02
2023-01-11T18:43:55.424Z,4.03
2023-01-11T18:46:22.860Z,4.04
2023-01-11T18:48:50.516Z,4.09
2023-01-11T18:51:35.792Z,4.12
2023-01-11T18:54:03.414Z,4.10
2023-01-11T18:56:30.748Z,4.11
2023-01-11T18:58:58.288Z,4.10
2023-01-11T19:01:25.751Z,4.08
2023-01-11T19:03:53.262Z,4.05
2023-01-11T19:06:22.736Z,4.05
2023-01-11T19:08:50.275Z,4.04
2023-01-11T19:11:17.930Z,4.06
2023-01-11T19:13:46.804Z,4.05
2023-01-11T19:16:15.334Z,4.07
2023-01-11T19:18:42.761Z,4.09
2023-01-11T19:21:11.939Z,4.09
2023-01-11T19:23:40.718Z,4.09
2023-01-11T19:26:08.238Z,4.09
2023-01-11T19:28:37.095Z,4.10
2023-01-11T19:31:09.353Z,4.09
2023-01-11T19:33:37.229Z,4.10
2023-01-11T19:36:09.291Z,4.12
2023-01-11T19:38:37.121Z,4.13
2023-01-11T19:41:08.122Z,4.11
2023-01-11T19:43:36.535Z,4.13
2023-01-11T19:46:04.176Z,4.15
2023-01-11T19:48:34.763Z,4.14
2023-01-11T19:51:11.334Z,4.12
2023-01-11T19:53:38.786Z,4.15
2023-01-11T19:56:08.930Z,4.13
2023-01-11T19:58:38.045Z,4.09
2023-01-11T20:01:11.517Z,4.06
2023-01-11T20:03:42.671Z,4.05
2023-01-11T20:06:10.326Z,4.07
2023-01-11T20:08:40.997Z,4.08
2023-01-11T20:11:12.371Z,4.10
2023-01-11T20:13:41.183Z,4.16
2023-01-11T20:16:13.043Z,4.13
2023-01-11T20:18:42.424Z,4.13
2023-01-11T20:21:11.096Z,4.16
2023-01-11T20:23:38.416Z,4.18
2023-01-11T20:26:14.918Z,4.23
2023-01-11T20:28:45.516Z,4.23
2023-01-11T20:31:13.090Z,4.23
2023-01-11T20:33:40.596Z,4.23
2023-01-11T20:36:17.608Z,4.25
2023-01-11T20:38:46.340Z,4.37
2023-01-11T20:41:36.213Z,4.42
2023-01-11T20:44:08.975Z,4.43
2023-01-11T20:46:37.554Z,4.49
2023-01-11T20:49:06.443Z,4.47
2023-01-11T20:51:35.211Z,4.44
2023-01-11T20:54:04.062Z,4.49
2023-01-11T20:56:33.182Z,4.51
2023-01-11T20:59:01.918Z,4.45
2023-01-11T21:01:30.455Z,4.52
2023-01-11T21:04:02.938Z,4.48
2023-01-11T21:06:33.215Z,4.44
2023-01-11T21:09:02.463Z,4.48
2023-01-11T21:11:31.403Z,4.46
2023-01-11T21:14:01.171Z,4.47
2023-01-11T21:16:30.235Z,4.44
2023-01-11T21:19:01.620Z,4.40
2023-01-11T21:21:32.724Z,4.39
2023-01-11T21:24:03.511Z,4.38
2023-01-11T21:26:33.191Z,4.36
2023-01-11T21:29:04.142Z,4.34
2023-01-11T21:31:35.299Z,4.32
2023-01-11T21:34:03.849Z,4.34
2023-01-11T21:36:31.972Z,4.36
2023-01-11T21:39:00.526Z,4.40
2023-01-11T21:41:48.709Z,4.41
2023-01-11T21:44:18.773Z,4.39
2023-01-11T21:46:46.804Z,4.37
2023-01-11T21:49:15.302Z,4.36
2023-01-11T21:51:43.444Z,4.29
2023-01-11T21:54:14.850Z,4.26
2023-01-11T21:56:42.429Z,4.23
2023-01-11T21:59:10.206Z,4.15
2023-01-11T22:01:40.433Z,4.10
2023-01-11T22:04:12.176Z,4.07
2023-01-11T22:06:43.146Z,4.07
2023-01-11T22:09:12.120Z,4.12
2023-01-11T22:11:39.913Z,4.25
2023-01-11T22:14:08.860Z,4.34
2023-01-11T22:16:37.798Z,4.34
2023-01-11T22:19:07.752Z,4.29
2023-01-11T22:21:37.690Z,4.20
2023-01-11T22:24:08.964Z,4.18
2023-01-11T22:26:39.057Z,4.15
2023-01-11T22:29:12.365Z,4.14
2023-01-11T22:31:51.599Z,4.14
2023-01-11T22:34:19.649Z,4.15
2023-01-11T22:36:47.345Z,4.19
2023-01-11T22:39:17.133Z,4.23
2023-01-11T22:41:46.005Z,4.23
2023-01-11T22:44:14.442Z,4.20
2023-01-11T22:46:42.850Z,4.21
2023-01-11T22:49:11.635Z,4.24
2023-01-11T22:51:41.925Z,4.30
2023-01-11T22:54:10.786Z,4.33
2023-01-11T22:56:38.480Z,4.36
2023-01-11T22:59:06.426Z,4.36
2023-01-11T23:01:42.923Z,4.39
2023-01-11T23:04:14.083Z,4.36
2023-01-11T23:06:42.752Z,4.39
2023-01-11T23:09:15.908Z,4.35
2023-01-11T23:12:03.358Z,4.35
2023-01-11T23:14:33.029Z,4.41
2023-01-11T23:17:06.090Z,4.41
2023-01-11T23:19:36.886Z,4.40
2023-01-11T23:22:05.760Z,4.36
2023-01-11T23:24:33.529Z,4.32
2023-01-11T23:27:00.941Z,4.21
2023-01-11T23:29:28.689Z,4.17
2023-01-11T23:31:56.135Z,4.12
2023-01-11T23:34:23.649Z,4.09
2023-01-11T23:36:51.099Z,4.09
2023-01-11T23:39:18.867Z,4.11
2023-01-11T23:42:05.007Z,4.10
2023-01-11T23:44:32.422Z,4.08
2023-01-11T23:47:18.851Z,4.08
2023-01-11T23:49:46.219Z,4.08
2023-01-11T23:52:13.633Z,4.04
2023-01-11T23:54:41.375Z,4.03
2023-01-11T23:57:12.253Z,4.03
2023-01-11T23:59:41.905Z,4.05
